Time;durP1;ratioP1;P1;durP2;ratioP2;P2;SDS_P1;SDS_P2;PMS_P1;PMS_P2;Temp;Humidity;BMP_temperature;BMP_pressure;BME280_temperature;BME280_humidity;BME280_pressure;Samples;Min_cycle;Max_cycle;Signal;HPM_P1;HPM_P2
2023/08/09 00:01:35;;;;;;;5.70;1.00;;;20.60;90.10;;;;;;5055514;28;20078;-75
2023/08/09 00:04:01;;;;;;;2.72;0.90;;;20.60;90.20;;;;;;5055208;28;20017;-75
2023/08/09 00:06:27;;;;;;;3.45;0.75;;;20.50;90.10;;;;;;5055394;28;20033;-75
2023/08/09 00:08:53;;;;;;;2.75;0.70;;;20.50;90.20;;;;;;5055297;28;20025;-75
2023/08/09 00:11:19;;;;;;;2.25;0.90;;;20.50;90.10;;;;;;5055912;28;20025;-76
2023/08/09 00:13:45;;;;;;;6.25;1.40;;;20.50;90.10;;;;;;5055917;28;20017;-76
2023/08/09 00:16:10;;;;;;;3.55;0.73;;;20.50;90.10;;;;;;5055710;28;20058;-75
2023/08/09 00:18:36;;;;;;;3.13;0.65;;;20.50;90.20;;;;;;5055886;28;20391;-74
2023/08/09 00:21:06;;;;;;;4.22;0.80;;;20.50;90.30;;;;;;5055996;28;20383;-76
2023/08/09 00:42:11;;;;;;;;;;;;;;;;;;;;;
2023/08/09 00:51:21;;;;;;;2.83;0.70;;;20.40;90.00;;;;;;4901519;29;20036;-76
2023/08/09 00:53:48;;;;;;;5.57;0.80;;;20.40;90.00;;;;;;4937078;28;20039;-75
2023/08/09 00:56:14;;;;;;;3.47;0.82;;;20.30;90.00;;;;;;5016761;28;20037;-76
2023/08/09 00:58:40;;;;;;;5.35;0.80;;;20.30;90.00;;;;;;5032338;28;20048;-75
2023/08/09 01:01:06;;;;;;;3.08;0.80;;;20.30;90.20;;;;;;5031655;28;20038;-75
2023/08/09 01:03:32;;;;;;;2.90;0.88;;;20.20;90.20;;;;;;5031615;28;20434;-75
2023/08/09 01:06:02;;;;;;;1.67;0.68;;;20.20;90.30;;;;;;5033549;28;20038;-76
2023/08/09 01:08:56;;;;;;;3.33;0.70;;;20.20;90.30;;;;;;5032974;28;20044;-76
2023/08/09 01:11:39;;;;;;;2.85;0.82;;;20.20;90.30;;;;;;5034280;28;20360;-76
2023/08/09 01:14:07;;;;;;;1.45;0.75;;;20.20;90.40;;;;;;5033773;28;20030;-74
2023/08/09 01:16:35;;;;;;;7.18;1.02;;;20.10;90.50;;;;;;5033922;28;20029;-75
2023/08/09 01:19:08;;;;;;;2.22;0.90;;;20.10;90.50;;;;;;5033841;28;20028;-75
2023/08/09 01:21:37;;;;;;;2.78;0.70;;;20.10;90.60;;;;;;5032588;28;20053;-76
2023/08/09 01:24:04;;;;;;;7.07;0.82;;;20.10;90.70;;;;;;5033810;28;20490;-75
2023/08/09 01:26:30;;;;;;;2.88;0.70;;;20.10;90.70;;;;;;5033687;28;20048;-76
2023/08/09 01:28:55;;;;;;;2.38;0.80;;;20.00;90.60;;;;;;5033636;28;20021;-76
2023/08/09 01:31:21;;;;;;;3.78;1.02;;;20.00;90.70;;;;;;5033677;28;20109;-75
2023/08/09 01:33:47;;;;;;;2.10;0.75;;;20.00;91.00;;;;;;5032298;28;20026;-76
2023/08/09 01:36:28;;;;;;;1.35;0.70;;;20.10;90.80;;;;;;5035563;28;20021;-75
2023/08/09 01:39:01;;;;;;;4.13;1.05;;;20.10;91.00;;;;;;5052461;28;20025;-76
2023/08/09 01:41:28;;;;;;;2.50;0.90;;;20.00;90.70;;;;;;5053539;28;20482;-75
2023/08/09 01:43:56;;;;;;;2.85;0.68;;;20.00;90.60;;;;;;5053419;28;20053;-76
2023/08/09 01:46:23;;;;;;;4.78;0.90;;;20.00;90.60;;;;;;5053461;28;20033;-76
2023/08/09 01:48:49;;;;;;;3.53;0.70;;;20.00;90.60;;;;;;5053527;28;20059;-76
2023/08/09 01:51:14;;;;;;;4.63;0.70;;;20.00;90.70;;;;;;5053761;28;20455;-76
2023/08/09 01:53:40;;;;;;;3.53;0.50;;;20.00;90.70;;;;;;5053998;28;20394;-76
2023/08/09 01:56:06;;;;;;;7.28;0.95;;;20.00;90.70;;;;;;5052692;28;20061;-76
2023/08/09 01:58:32;;;;;;;3.70;0.73;;;19.90;90.60;;;;;;5053888;28;20095;-77
2023/08/09 02:02:13;;;;;;;;;;;;;;;;;;;;;
2023/08/09 02:21:31;;;;;;;3.10;0.80;;;19.90;90.60;;;;;;4991175;28;20042;-76
2023/08/09 02:27:46;;;;;;;2.47;0.93;;;19.80;90.70;;;;;;4961984;28;20074;-76
2023/08/09 02:30:12;;;;;;;2.67;0.90;;;19.80;90.70;;;;;;4931277;29;20413;-76
2023/08/09 02:32:38;;;;;;;2.58;0.77;;;19.80;90.70;;;;;;5038508;28;20033;-76
2023/08/09 02:35:05;;;;;;;3.15;0.55;;;19.70;90.70;;;;;;5052705;28;20083;-76
2023/08/09 02:37:32;;;;;;;2.47;0.63;;;19.70;90.80;;;;;;5052321;28;20045;-76
2023/08/09 02:39:58;;;;;;;2.63;0.70;;;19.70;90.80;;;;;;5051523;28;20426;-76
2023/08/09 02:42:23;;;;;;;3.30;0.85;;;19.70;90.80;;;;;;5052536;28;20113;-76
2023/08/09 02:44:49;;;;;;;3.42;0.60;;;19.70;90.90;;;;;;5052472;28;20045;-75
2023/08/09 02:47:15;;;;;;;3.75;1.08;;;19.60;90.80;;;;;;5052443;28;20025;-76
2023/08/09 02:49:41;;;;;;;4.65;1.00;;;19.70;90.90;;;;;;5052658;28;20028;-75
2023/08/09 02:52:07;;;;;;;3.50;1.20;;;19.60;90.90;;;;;;5052690;28;20071;-76
2023/08/09 02:54:32;;;;;;;5.10;0.73;;;19.60;90.90;;;;;;5052186;28;20087;-75
2023/08/09 02:56:58;;;;;;;4.35;0.60;;;19.60;90.90;;;;;;5052068;28;20108;-75
2023/08/09 02:59:24;;;;;;;6.13;0.80;;;19.60;90.90;;;;;;5052649;28;20106;-76
2023/08/09 03:01:50;;;;;;;2.38;0.60;;;19.60;90.90;;;;;;5052576;28;20100;-76
2023/08/09 03:04:16;;;;;;;4.75;0.60;;;19.50;90.90;;;;;;5052368;28;20037;-76
2023/08/09 03:06:41;;;;;;;3.50;0.70;;;19.50;91.00;;;;;;5052241;28;20037;-74
2023/08/09 03:09:07;;;;;;;2.03;0.80;;;19.50;91.00;;;;;;5051013;28;20021;-75
2023/08/09 03:11:33;;;;;;;3.00;0.80;;;19.50;91.10;;;;;;5052357;28;20155;-75
2023/08/09 03:13:59;;;;;;;2.00;0.60;;;19.60;91.10;;;;;;5052321;28;20040;-74
2023/08/09 03:16:24;;;;;;;1.90;0.60;;;19.50;91.20;;;;;;5052316;28;20028;-76
2023/08/09 03:18:50;;;;;;;4.15;0.60;;;19.50;91.20;;;;;;5052364;28;20029;-75
2023/08/09 03:21:17;;;;;;;4.97;0.80;;;19.50;91.20;;;;;;5052040;28;20025;-75
2023/08/09 03:23:43;;;;;;;2.95;0.70;;;19.50;91.10;;;;;;5051923;28;20112;-76
2023/08/09 03:26:09;;;;;;;1.23;0.50;;;19.50;91.10;;;;;;5052306;28;20051;-76
2023/08/09 03:28:36;;;;;;;1.70;0.50;;;19.50;90.90;;;;;;5052725;28;20054;-76
2023/08/09 03:31:03;;;;;;;4.32;0.90;;;19.60;90.90;;;;;;5052656;28;20029;-76
2023/08/09 03:33:29;;;;;;;2.40;0.68;;;19.60;90.80;;;;;;5053554;28;20052;-77
2023/08/09 03:35:55;;;;;;;3.10;0.77;;;19.60;90.90;;;;;;5055939;28;20080;-76
2023/08/09 03:48:56;;;;;;;5.70;1.35;;;19.40;91.10;;;;;;4994627;28;20203;-76
2023/08/09 03:58:14;;;;;;;5.63;0.80;;;19.30;91.30;;;;;;4921892;29;20042;-76
2023/08/09 04:04:13;;;;;;;0.75;0.60;;;19.30;91.40;;;;;;4955075;28;20035;-76
2023/08/09 04:06:39;;;;;;;1.33;0.70;;;19.30;91.50;;;;;;4954811;28;20448;-76
2023/08/09 04:09:07;;;;;;;0.70;0.50;;;19.20;91.50;;;;;;4999580;28;20452;-75
2023/08/09 04:11:33;;;;;;;2.90;0.98;;;19.20;91.60;;;;;;5055403;28;20059;-75
2023/08/09 04:13:59;;;;;;;2.88;0.80;;;19.20;91.60;;;;;;5055131;28;20056;-75
2023/08/09 04:16:25;;;;;;;3.08;0.77;;;19.30;91.70;;;;;;5055282;28;20078;-76
2023/08/09 04:18:51;;;;;;;2.45;0.80;;;19.20;91.70;;;;;;5055155;28;20178;-76
2023/08/09 04:21:17;;;;;;;2.00;0.68;;;19.20;91.70;;;;;;5055241;28;20111;-76
2023/08/09 04:23:43;;;;;;;5.38;0.82;;;19.20;91.80;;;;;;5055030;28;20025;-76
2023/08/09 04:26:09;;;;;;;3.40;0.50;;;19.20;91.70;;;;;;5055031;28;20044;-76
2023/08/09 04:28:34;;;;;;;5.97;0.88;;;19.20;91.70;;;;;;5054706;28;20063;-75
2023/08/09 04:31:02;;;;;;;2.72;0.80;;;19.20;91.70;;;;;;5055187;28;20025;-75
2023/08/09 04:33:28;;;;;;;2.70;0.65;;;19.20;91.70;;;;;;5055071;28;20025;-76
2023/08/09 04:35:54;;;;;;;1.20;0.63;;;19.20;91.70;;;;;;5054971;28;20021;-75
2023/08/09 04:38:20;;;;;;;1.75;0.90;;;19.20;91.70;;;;;;5035033;28;20033;-76
2023/08/09 04:40:45;;;;;;;6.13;1.05;;;19.30;92.10;;;;;;5033980;28;20031;-76
2023/08/09 04:43:13;;;;;;;5.03;1.00;;;19.30;91.90;;;;;;5034884;28;20021;-76
2023/08/09 04:45:39;;;;;;;7.70;1.20;;;19.30;92.00;;;;;;5034450;28;20125;-75
2023/08/09 04:48:05;;;;;;;5.53;0.80;;;19.20;92.00;;;;;;5034875;28;20030;-76
2023/08/09 04:50:32;;;;;;;9.68;1.00;;;19.30;92.00;;;;;;5033772;28;20025;-75
2023/08/09 04:52:58;;;;;;;3.88;0.98;;;19.30;91.80;;;;;;5033153;28;20495;-76
2023/08/09 04:55:24;;;;;;;4.93;0.90;;;19.30;91.80;;;;;;5033151;28;20049;-76
2023/08/09 04:57:50;;;;;;;3.88;0.73;;;19.20;92.00;;;;;;5033030;28;20033;-75
2023/08/09 05:00:16;;;;;;;5.45;0.98;;;19.30;92.10;;;;;;5033217;28;20116;-76
2023/08/09 05:02:42;;;;;;;1.80;0.75;;;19.30;92.20;;;;;;5032843;28;20087;-75
2023/08/09 05:05:09;;;;;;;3.97;0.90;;;19.30;92.30;;;;;;5033706;28;20034;-76
2023/08/09 05:07:36;;;;;;;4.22;0.75;;;19.30;92.20;;;;;;5035281;28;20029;-76
2023/08/09 05:10:04;;;;;;;3.85;0.98;;;19.30;92.30;;;;;;5035212;28;20108;-76
2023/08/09 05:12:31;;;;;;;1.45;0.75;;;19.30;92.30;;;;;;5034819;28;20022;-76
2023/08/09 05:15:00;;;;;;;2.70;0.93;;;19.40;92.30;;;;;;5034771;28;20021;-76
2023/08/09 05:28:44;;;;;;;5.85;0.85;;;19.30;92.90;;;;;;4912269;29;20044;-76
2023/08/09 05:35:18;;;;;;;3.60;0.88;;;19.40;92.60;;;;;;4877695;29;20117;-76
2023/08/09 05:41:08;;;;;;;6.68;1.00;;;19.50;92.70;;;;;;4924842;28;20559;-76
2023/08/09 05:43:34;;;;;;;2.38;0.80;;;19.50;92.80;;;;;;4978205;28;20030;-76
2023/08/09 05:46:00;;;;;;;2.20;0.70;;;19.40;92.70;;;;;;5012506;28;20030;-76
2023/08/09 05:48:26;;;;;;;1.67;0.88;;;19.50;92.60;;;;;;5013769;28;20026;-76
2023/08/09 05:50:51;;;;;;;7.50;1.00;;;19.50;92.50;;;;;;5012958;28;20033;-76
2023/08/09 05:53:18;;;;;;;3.97;1.00;;;19.50;92.40;;;;;;5013858;28;20021;-75
2023/08/09 05:55:44;;;;;;;2.95;0.70;;;19.50;92.40;;;;;;5013041;28;20038;-76
2023/08/09 05:58:10;;;;;;;5.75;0.90;;;19.50;92.30;;;;;;5013414;28;20117;-76
2023/08/09 06:00:37;;;;;;;3.83;0.80;;;19.60;92.30;;;;;;5013740;28;20034;-76
2023/08/09 06:03:03;;;;;;;3.15;0.70;;;19.60;92.20;;;;;;5013519;28;20383;-76
2023/08/09 06:05:29;;;;;;;3.03;0.60;;;19.70;92.20;;;;;;5013192;28;20034;-75
2023/08/09 06:07:55;;;;;;;1.73;0.82;;;19.70;92.00;;;;;;5013419;28;20037;-76
2023/08/09 06:10:23;;;;;;;4.53;0.63;;;19.80;91.90;;;;;;5013577;28;20033;-76
2023/08/09 06:12:49;;;;;;;3.63;0.70;;;19.90;91.70;;;;;;5013130;28;20071;-77
2023/08/09 06:15:16;;;;;;;5.82;0.95;;;19.90;91.70;;;;;;5012991;28;20472;-76
2023/08/09 06:17:42;;;;;;;4.55;0.70;;;20.00;91.70;;;;;;5012889;28;20483;-76
2023/08/09 06:20:09;;;;;;;3.83;0.80;;;20.00;91.60;;;;;;5013178;28;20499;-76
2023/08/09 06:22:34;;;;;;;8.32;1.10;;;20.00;91.60;;;;;;5012939;28;20025;-77
2023/08/09 06:25:00;;;;;;;4.28;1.23;;;20.10;91.60;;;;;;5013091;28;20049;-74
2023/08/09 06:27:26;;;;;;;3.28;0.95;;;20.10;91.40;;;;;;5012649;28;20081;-75
2023/08/09 06:29:52;;;;;;;4.97;0.90;;;20.10;91.40;;;;;;5013090;28;20101;-76
2023/08/09 06:32:17;;;;;;;0.90;0.65;;;20.10;91.40;;;;;;5012786;28;20033;-84
2023/08/09 06:34:43;;;;;;;1.90;0.55;;;20.10;91.40;;;;;;5013125;28;20022;-73
2023/08/09 06:37:09;;;;;;;4.45;0.63;;;20.20;91.40;;;;;;5032559;28;20052;-73
2023/08/09 06:39:35;;;;;;;2.45;1.00;;;20.20;91.30;;;;;;5049617;28;20179;-74
2023/08/09 06:42:01;;;;;;;5.15;0.85;;;20.20;91.30;;;;;;5052185;28;20029;-75
2023/08/09 06:44:27;;;;;;;5.10;0.90;;;20.20;91.20;;;;;;5052670;28;20025;-72
2023/08/09 06:46:56;;;;;;;6.72;0.73;;;20.30;91.10;;;;;;5053265;28;20044;-74
2023/08/09 06:49:22;;;;;;;5.03;1.00;;;20.30;91.00;;;;;;5052729;28;20064;-73
2023/08/09 06:51:54;;;;;;;2.60;0.90;;;20.30;90.90;;;;;;5052871;28;20112;-73
2023/08/09 06:54:52;;;;;;;4.80;0.70;;;20.30;90.90;;;;;;5052483;28;20498;-72
2023/08/09 06:57:28;;;;;;;3.67;0.80;;;20.40;90.90;;;;;;5049865;28;20069;-73
2023/08/09 07:07:58;;;;;;;2.45;0.82;;;20.60;90.60;;;;;;5010901;28;20090;-73
2023/08/09 07:11:23;;;;;;;2.53;0.77;;;20.60;90.70;;;;;;4956208;29;20040;-71
2023/08/09 07:13:51;;;;;;;7.95;0.90;;;20.60;90.70;;;;;;4883844;29;20077;-71
2023/08/09 07:16:28;;;;;;;2.20;0.80;;;20.60;90.70;;;;;;4940224;29;20214;-71
2023/08/09 07:18:54;;;;;;;3.72;0.75;;;20.60;90.80;;;;;;5004983;28;20044;-71
2023/08/09 07:21:22;;;;;;;4.75;0.88;;;20.60;90.90;;;;;;5056391;28;20017;-70
2023/08/09 07:23:47;;;;;;;5.28;0.70;;;20.70;90.90;;;;;;5056283;28;20394;-70
2023/08/09 07:26:13;;;;;;;6.40;0.80;;;20.70;91.20;;;;;;5056356;28;20043;-70
2023/08/09 07:28:39;;;;;;;7.78;1.02;;;20.70;91.00;;;;;;5056539;28;20052;-71
2023/08/09 07:31:22;;;;;;;3.22;1.05;;;20.60;90.90;;;;;;5056061;28;20027;-72
2023/08/09 07:33:49;;;;;;;9.57;2.22;;;20.70;90.90;;;;;;5055902;28;20029;-71
2023/08/09 07:36:15;;;;;;;8.75;0.98;;;20.70;90.80;;;;;;5054373;28;20395;-70
2023/08/09 07:38:41;;;;;;;8.27;1.13;;;20.70;90.80;;;;;;5055723;28;20029;-72
2023/08/09 07:41:07;;;;;;;7.45;1.17;;;20.70;90.80;;;;;;5055731;28;20446;-71
2023/08/09 07:43:33;;;;;;;2.97;0.80;;;20.70;90.70;;;;;;5055825;28;20096;-72
2023/08/09 07:45:59;;;;;;;9.63;1.10;;;20.70;90.70;;;;;;5055964;28;20095;-73
2023/08/09 07:48:25;;;;;;;5.22;1.27;;;20.70;90.70;;;;;;5056031;28;20040;-72
2023/08/09 07:50:51;;;;;;;6.35;1.50;;;20.70;90.80;;;;;;5055999;28;20442;-73
2023/08/09 07:53:17;;;;;;;8.70;1.08;;;20.70;90.80;;;;;;5055856;28;20097;-71
2023/08/09 07:55:42;;;;;;;4.25;0.90;;;20.70;90.80;;;;;;5055379;28;20068;-71
2023/08/09 07:58:09;;;;;;;5.40;0.80;;;20.80;90.80;;;;;;5055305;28;20074;-73
2023/08/09 08:00:34;;;;;;;3.08;1.20;;;20.80;90.80;;;;;;5055617;28;20017;-71
2023/08/09 08:03:01;;;;;;;5.60;1.77;;;20.80;90.90;;;;;;5055159;28;20028;-70
2023/08/09 08:05:26;;;;;;;5.40;1.00;;;20.80;90.90;;;;;;5055136;28;20033;-69
2023/08/09 08:07:52;;;;;;;10.05;1.50;;;20.80;91.00;;;;;;5055224;28;20029;-70
2023/08/09 08:10:18;;;;;;;6.13;1.25;;;20.90;91.10;;;;;;5055640;28;20025;-70
2023/08/09 08:12:46;;;;;;;7.47;1.10;;;20.90;91.20;;;;;;5055554;28;20025;-69
2023/08/09 08:15:12;;;;;;;2.17;1.00;;;20.90;91.30;;;;;;5055309;28;20483;-70
2023/08/09 08:17:38;;;;;;;4.30;0.98;;;20.90;91.30;;;;;;5054866;28;20513;-70
2023/08/09 08:20:10;;;;;;;4.10;1.00;;;20.90;91.30;;;;;;5054335;28;20052;-69
2023/08/09 08:22:37;;;;;;;4.57;0.77;;;21.00;91.40;;;;;;5055799;28;20410;-69
2023/08/09 08:25:04;;;;;;;6.63;1.30;;;21.00;91.30;;;;;;5055772;28;20083;-69
2023/08/09 08:27:34;;;;;;;5.45;1.10;;;21.00;91.30;;;;;;5055378;28;20363;-70
2023/08/09 08:30:52;;;;;;;;;;;;;;;;;;;;;
2023/08/09 08:34:31;;;;;;;;;;;;;;;;;;;;;
2023/08/09 08:37:39;;;;;;;3.30;1.00;;;21.20;91.50;;;;;;5049708;28;20045;-71
2023/08/09 08:40:42;;;;;;;4.22;1.00;;;21.20;91.60;;;;;;5012046;28;20517;-70
2023/08/09 08:44:29;;;;;;;7.90;1.45;;;21.20;91.90;;;;;;5012212;28;20077;-77
2023/08/09 08:47:23;;;;;;;6.22;1.15;;;21.30;91.50;;;;;;4912784;29;20056;-75
2023/08/09 08:56:26;;;;;;;14.40;2.15;;;21.40;91.40;;;;;;4876316;29;20047;-76
2023/08/09 08:58:52;;;;;;;7.40;1.70;;;21.40;91.40;;;;;;4953445;29;20043;-76
2023/08/09 09:01:23;;;;;;;10.48;1.45;;;21.50;91.50;;;;;;4953276;29;20030;-75
2023/08/09 09:03:48;;;;;;;6.47;1.40;;;21.50;91.40;;;;;;5009151;28;20056;-76
2023/08/09 09:06:14;;;;;;;5.57;1.45;;;21.50;91.30;;;;;;5054391;28;20474;-76
2023/08/09 09:08:41;;;;;;;6.93;1.30;;;21.50;91.10;;;;;;5054536;28;20029;-76
2023/08/09 09:11:18;;;;;;;3.60;1.02;;;21.60;91.00;;;;;;5054448;28;20116;-76
2023/08/09 09:13:47;;;;;;;3.80;1.02;;;21.60;91.00;;;;;;5054239;28;20367;-76
2023/08/09 09:16:15;;;;;;;6.95;2.30;;;21.70;91.10;;;;;;5053949;28;20398;-77
2023/08/09 09:18:42;;;;;;;8.10;2.20;;;21.70;91.10;;;;;;5054160;28;20444;-76
2023/08/09 09:21:10;;;;;;;3.00;1.05;;;21.80;91.30;;;;;;5054209;28;20025;-76
2023/08/09 09:23:37;;;;;;;2.88;1.60;;;21.90;91.00;;;;;;5053499;28;20505;-76
2023/08/09 09:26:14;;;;;;;4.03;1.00;;;22.00;90.50;;;;;;5053754;28;20036;-76
2023/08/09 09:28:45;;;;;;;3.80;0.88;;;22.10;89.30;;;;;;5053801;28;20499;-76
2023/08/09 09:31:17;;;;;;;2.27;0.80;;;22.20;88.50;;;;;;5054378;28;20021;-75
2023/08/09 09:33:50;;;;;;;;;;;22.30;88.50;;;;;;5036486;28;20102;-77
2023/08/09 09:36:19;;;;;;;3.22;0.90;;;22.30;88.10;;;;;;5053798;28;19995;-76
2023/08/09 09:38:50;;;;;;;1.27;0.65;;;22.40;87.40;;;;;;5053730;28;20102;-77
2023/08/09 09:41:16;;;;;;;4.15;0.77;;;22.40;86.40;;;;;;5054059;28;20118;-76
2023/08/09 09:43:43;;;;;;;3.17;0.90;;;22.40;85.10;;;;;;5053924;28;20064;-75
2023/08/09 09:46:25;;;;;;;2.63;0.80;;;22.50;85.70;;;;;;5053610;28;20437;-75
2023/08/09 09:49:05;;;;;;;2.63;0.70;;;22.50;85.70;;;;;;5053386;28;20032;-76
2023/08/09 09:51:31;;;;;;;1.58;0.82;;;22.50;85.40;;;;;;5035645;28;20383;-75
2023/08/09 09:53:57;;;;;;;6.80;1.00;;;22.50;85.10;;;;;;5053591;28;20050;-76
2023/08/09 09:56:23;;;;;;;3.63;1.00;;;22.60;85.40;;;;;;5053604;28;20468;-76
2023/08/09 09:58:49;;;;;;;2.33;0.90;;;22.60;85.10;;;;;;5053425;28;20020;-75
2023/08/09 10:01:22;;;;;;;1.40;0.80;;;22.60;83.90;;;;;;5053632;28;20032;-76
2023/08/09 10:03:53;;;;;;;2.88;0.80;;;22.60;84.20;;;;;;5053648;28;20083;-76
2023/08/09 10:06:28;;;;;;;2.40;0.75;;;22.60;83.80;;;;;;5053928;28;20029;-77
2023/08/09 10:08:59;;;;;;;3.45;0.85;;;22.70;84.70;;;;;;5053454;28;20060;-75
2023/08/09 10:35:57;;;;;;;1.25;0.70;;;22.90;82.90;;;;;;4798095;29;20267;-77
2023/08/09 10:38:32;;;;;;;2.55;1.10;;;23.00;83.20;;;;;;4858445;29;20092;-76
2023/08/09 10:41:06;;;;;;;1.17;0.70;;;23.10;83.40;;;;;;4877689;29;20369;-76
2023/08/09 10:43:34;;;;;;;1.98;0.80;;;23.10;83.40;;;;;;5008044;28;20123;-75
2023/08/09 10:46:20;;;;;;;4.18;0.98;;;23.10;83.30;;;;;;5032582;28;20379;-78
2023/08/09 10:48:54;;;;;;;2.72;0.95;;;23.10;83.10;;;;;;5032362;28;20048;-78
2023/08/09 10:51:22;;;;;;;2.90;0.80;;;23.10;81.90;;;;;;5032380;28;20086;-78
2023/08/09 10:54:05;;;;;;;3.30;0.70;;;23.20;81.10;;;;;;5031132;28;20402;-76
2023/08/09 10:56:32;;;;;;;2.60;0.80;;;23.20;80.70;;;;;;5032719;28;20383;-76
2023/08/09 10:59:15;;;;;;;4.35;0.75;;;23.20;80.20;;;;;;5032596;28;20498;-78
2023/08/09 11:01:42;;;;;;;4.68;3.65;;;23.30;81.40;;;;;;5032306;28;20029;-78
2023/08/09 11:04:12;;;;;;;2.55;1.58;;;23.30;78.50;;;;;;5032278;28;20479;-79
2023/08/09 11:06:39;;;;;;;3.20;1.95;;;23.30;78.20;;;;;;5032493;28;20037;-78
2023/08/09 11:09:17;;;;;;;1.38;0.80;;;23.40;77.60;;;;;;5032310;28;20471;-76
2023/08/09 11:11:45;;;;;;;2.30;1.00;;;23.40;77.30;;;;;;5032273;28;20482;-77
2023/08/09 11:14:13;;;;;;;1.92;0.77;;;23.50;76.70;;;;;;5032364;28;20033;-78
2023/08/09 11:16:40;;;;;;;1.45;0.70;;;23.60;75.20;;;;;;5032544;28;20460;-79
2023/08/09 11:19:13;;;;;;;0.77;0.60;;;23.60;71.80;;;;;;5032285;28;20041;-78
2023/08/09 11:21:41;;;;;;;0.55;0.50;;;23.60;69.20;;;;;;5032107;28;20114;-78
2023/08/09 11:24:11;;;;;;;1.42;0.70;;;23.70;69.10;;;;;;5032278;28;20018;-78
2023/08/09 11:26:39;;;;;;;1.13;0.65;;;23.70;68.80;;;;;;5032114;28;20045;-77
2023/08/09 11:29:06;;;;;;;2.28;1.77;;;23.70;68.90;;;;;;5014756;28;20022;-75
2023/08/09 11:31:40;;;;;;;3.75;1.98;;;23.80;67.80;;;;;;5032182;28;20530;-78
2023/08/09 11:34:06;;;;;;;0.70;0.70;;;23.80;68.30;;;;;;5032243;28;20101;-75
2023/08/09 11:36:33;;;;;;;1.30;0.60;;;23.90;69.20;;;;;;5032318;28;20030;-76
2023/08/09 11:38:59;;;;;;;1.45;0.90;;;23.90;69.00;;;;;;5048859;28;20418;-78
2023/08/09 11:41:43;;;;;;;1.02;0.60;;;23.90;69.60;;;;;;5052904;28;20052;-78
2023/08/09 11:44:11;;;;;;;1.13;0.75;;;23.90;68.50;;;;;;5052702;28;20359;-79
2023/08/09 11:46:40;;;;;;;3.42;0.60;;;23.90;65.00;;;;;;5052568;28;20040;-73
2023/08/09 11:49:50;;;;;;;3.28;0.70;;;23.90;67.00;;;;;;5052089;28;20021;-78
2023/08/09 11:52:53;;;;;;;0.80;0.60;;;23.90;68.10;;;;;;4990107;28;20066;-74
2023/08/09 11:59:00;;;;;;;2.55;1.00;;;24.00;70.10;;;;;;4994612;28;20034;-78
2023/08/09 12:02:15;;;;;;;2.78;0.70;;;24.00;71.20;;;;;;4994291;28;20030;-76
2023/08/09 12:05:19;;;;;;;0.70;0.60;;;24.10;72.40;;;;;;4974910;28;20034;-74
2023/08/09 12:08:10;;;;;;;1.23;0.93;;;24.10;69.10;;;;;;4973155;28;20464;-73
2023/08/09 12:11:27;;;;;;;;;;;;;;;;;;;;;
2023/08/09 12:13:54;;;;;;;0.80;0.60;;;24.10;69.70;;;;;;4974420;28;20539;-77
2023/08/09 12:16:20;;;;;;;2.58;0.98;;;24.10;69.40;;;;;;5001402;28;20140;-77
2023/08/09 12:18:45;;;;;;;2.92;0.70;;;24.10;69.10;;;;;;5037483;28;20142;-77
2023/08/09 12:21:11;;;;;;;3.17;0.68;;;24.10;69.70;;;;;;5055277;28;20025;-76
2023/08/09 12:23:37;;;;;;;1.35;0.75;;;24.10;70.40;;;;;;5037153;28;20029;-78
2023/08/09 12:26:04;;;;;;;1.02;0.60;;;24.20;69.20;;;;;;5055222;28;20051;-78
2023/08/09 12:28:31;;;;;;;3.47;0.77;;;24.20;67.40;;;;;;5055031;28;20025;-78
2023/08/09 12:30:56;;;;;;;4.55;0.60;;;24.20;68.10;;;;;;5055309;28;20032;-77
2023/08/09 12:33:22;;;;;;;0.70;0.65;;;24.20;68.30;;;;;;5037556;28;20082;-78
2023/08/09 12:35:48;;;;;;;1.23;0.77;;;24.30;67.30;;;;;;5054923;28;20040;-79
2023/08/09 12:38:14;;;;;;;2.28;0.68;;;24.30;69.00;;;;;;5054668;28;20053;-78
2023/08/09 12:40:40;;;;;;;1.98;0.60;;;24.30;68.40;;;;;;5055057;28;20035;-78
2023/08/09 12:43:06;;;;;;;6.97;0.70;;;24.40;68.60;;;;;;5037240;28;20017;-77
2023/08/09 12:45:32;;;;;;;0.82;0.63;;;24.40;67.40;;;;;;5054798;28;20470;-77
2023/08/09 12:47:57;;;;;;;1.38;0.60;;;24.40;68.60;;;;;;5054747;28;20078;-78
2023/08/09 12:50:23;;;;;;;1.40;0.70;;;24.40;69.40;;;;;;5054861;28;20021;-77
2023/08/09 12:52:49;;;;;;;4.22;0.80;;;24.40;68.50;;;;;;5054543;28;20048;-77
2023/08/09 12:55:15;;;;;;;4.85;0.90;;;24.30;68.50;;;;;;5054896;28;20025;-76
2023/08/09 12:57:40;;;;;;;2.80;0.70;;;24.40;68.50;;;;;;5054423;28;20056;-78
2023/08/09 13:00:07;;;;;;;1.30;0.80;;;24.40;67.00;;;;;;5054436;28;20043;-75
2023/08/09 13:02:33;;;;;;;3.13;0.70;;;24.40;66.00;;;;;;5054676;28;20087;-78
2023/08/09 13:05:00;;;;;;;2.70;0.70;;;24.40;66.40;;;;;;5053929;28;20028;-78
2023/08/09 13:07:29;;;;;;;2.10;0.70;;;24.40;65.90;;;;;;5054377;28;20029;-78
2023/08/09 13:09:55;;;;;;;1.00;0.65;;;24.40;67.20;;;;;;5054821;28;20031;-78
2023/08/09 13:12:25;;;;;;;2.90;0.60;;;24.30;66.90;;;;;;5054871;28;20020;-78
2023/08/09 13:14:51;;;;;;;6.85;0.63;;;24.30;63.80;;;;;;5054692;28;20056;-78
2023/08/09 13:17:17;;;;;;;2.55;0.85;;;24.30;66.20;;;;;;5054446;28;20025;-78
2023/08/09 13:27:03;;;;;;;1.30;0.75;;;24.50;64.90;;;;;;4935025;29;20087;-77
2023/08/09 13:43:15;;;;;;;2.25;1.02;;;24.80;61.50;;;;;;4858131;29;20042;-77
2023/08/09 13:45:44;;;;;;;1.23;0.60;;;24.80;61.90;;;;;;4859525;29;20041;-78
2023/08/09 13:48:10;;;;;;;4.78;0.80;;;24.80;61.70;;;;;;4885664;28;20042;-78
2023/08/09 13:50:36;;;;;;;1.70;0.70;;;24.80;63.00;;;;;;5029392;28;20038;-78
2023/08/09 13:53:03;;;;;;;1.25;0.50;;;24.80;62.50;;;;;;5033470;28;20057;-75
2023/08/09 13:55:29;;;;;;;3.85;1.23;;;24.90;62.10;;;;;;5033640;28;20383;-77
2023/08/09 13:57:54;;;;;;;1.60;0.63;;;24.80;61.20;;;;;;5033364;28;20034;-78
2023/08/09 14:00:21;;;;;;;1.60;0.65;;;24.90;61.80;;;;;;5033631;28;20025;-78
2023/08/09 14:02:47;;;;;;;2.83;0.88;;;24.80;62.90;;;;;;5033544;28;20034;-76
2023/08/09 14:05:12;;;;;;;2.97;0.60;;;24.80;64.00;;;;;;5033127;28;20033;-78
2023/08/09 14:07:38;;;;;;;2.58;0.50;;;24.80;61.10;;;;;;5033215;28;20155;-74
2023/08/09 14:10:05;;;;;;;1.70;0.60;;;24.80;61.00;;;;;;5032915;28;20028;-77
2023/08/09 14:12:30;;;;;;;0.77;0.60;;;24.80;61.70;;;;;;5033218;28;20472;-77
2023/08/09 14:14:56;;;;;;;3.15;0.60;;;24.70;60.20;;;;;;5033023;28;20033;-77
2023/08/09 14:17:22;;;;;;;2.13;0.70;;;24.70;61.70;;;;;;5032423;28;20103;-76
2023/08/09 14:19:48;;;;;;;2.08;0.80;;;24.70;61.70;;;;;;5032680;28;20072;-77
2023/08/09 14:22:14;;;;;;;0.95;0.63;;;24.70;60.60;;;;;;5032680;28;20101;-78
2023/08/09 14:24:39;;;;;;;0.73;0.70;;;24.70;61.90;;;;;;5032663;28;20044;-76
2023/08/09 14:27:05;;;;;;;2.85;0.60;;;24.70;62.30;;;;;;5032831;28;20038;-77
2023/08/09 14:29:31;;;;;;;1.50;0.70;;;24.70;61.50;;;;;;5032861;28;20018;-74
2023/08/09 14:31:57;;;;;;;0.88;0.50;;;24.70;61.50;;;;;;5032241;28;20121;-77
2023/08/09 14:34:23;;;;;;;2.28;0.90;;;24.60;62.50;;;;;;5043201;22;20017;-77
2023/08/09 14:36:49;;;;;;;3.60;0.73;;;24.60;63.20;;;;;;5072146;28;20039;-76
2023/08/09 14:39:15;;;;;;;3.40;0.63;;;24.60;63.50;;;;;;5087921;28;20020;-77
2023/08/09 14:41:40;;;;;;;3.15;0.70;;;24.60;63.70;;;;;;5072066;28;20029;-76
2023/08/09 14:44:06;;;;;;;1.20;0.60;;;24.60;63.90;;;;;;5072140;28;20077;-78
2023/08/09 14:46:35;;;;;;;1.00;0.50;;;24.50;64.20;;;;;;5071933;28;20055;-77
2023/08/09 14:49:01;;;;;;;1.33;0.70;;;24.50;64.40;;;;;;5071455;28;20428;-77
2023/08/09 14:51:27;;;;;;;0.75;0.63;;;24.50;64.30;;;;;;5072037;28;20094;-78
2023/08/09 14:53:53;;;;;;;2.22;0.70;;;24.50;64.80;;;;;;5072013;28;20024;-75
2023/08/09 15:04:22;;;;;;;1.45;0.70;;;24.50;65.80;;;;;;5010017;28;20170;-79
2023/08/09 15:07:09;;;;;;;2.20;0.70;;;24.50;65.60;;;;;;4939809;28;20051;-77
2023/08/09 15:10:42;;;;;;;1.38;0.93;;;24.50;65.40;;;;;;4969256;28;20035;-76
2023/08/09 15:17:26;;;;;;;1.85;0.90;;;24.50;65.30;;;;;;4890701;29;20036;-78
2023/08/09 15:20:25;;;;;;;1.08;0.70;;;24.50;66.00;;;;;;4935349;28;20457;-78
2023/08/09 15:22:52;;;;;;;3.40;1.00;;;24.50;64.40;;;;;;4938931;28;20042;-78
2023/08/09 15:25:24;;;;;;;2.78;0.73;;;24.50;65.20;;;;;;5002198;28;20408;-74
2023/08/09 15:27:53;;;;;;;5.03;0.90;;;24.50;65.10;;;;;;5042464;28;20033;-76
2023/08/09 15:30:19;;;;;;;0.90;0.60;;;24.50;65.50;;;;;;5075669;28;20421;-77
2023/08/09 15:32:49;;;;;;;1.30;0.70;;;24.60;66.00;;;;;;5076155;28;20025;-77
2023/08/09 15:35:15;;;;;;;4.00;1.33;;;24.50;63.40;;;;;;5075780;28;20045;-74
2023/08/09 15:37:41;;;;;;;3.45;0.88;;;24.50;62.70;;;;;;5075890;28;20074;-75
2023/08/09 15:40:08;;;;;;;1.08;0.70;;;24.50;63.40;;;;;;5075650;28;20024;-77
2023/08/09 15:42:34;;;;;;;1.30;0.65;;;24.50;60.60;;;;;;5075802;28;20377;-76
2023/08/09 15:45:00;;;;;;;2.00;0.90;;;24.50;61.80;;;;;;5075873;28;20038;-75
2023/08/09 15:47:26;;;;;;;2.92;0.60;;;24.50;62.90;;;;;;5075516;28;20413;-76
2023/08/09 15:49:52;;;;;;;5.28;0.60;;;24.50;63.10;;;;;;5075679;28;20082;-75